Terminal Aerodrome Forecast
Issued by NWS Paducah, KY

Home | Current Version | Previous Version | Text Only | Print | Product List | Glossary On
Versions: 1 2 3 4 5 6 7 8 9 10 11 12 13 14 15 16 17 18 19 20 21 22 23 24 25 26 27 28 29 30 31
000
FTUS43 KPAH 281122
TAFPAH
TAF
KPAH 281122Z 2812/2912 VRB03KT P6SM -RA SCT020 OVC120
      TEMPO 2812/2814 VRB03KT 1SM -SHRA BR BKN002 OVC010
     FM281500 25005KT P6SM BKN045
      TEMPO 2908/2912 3SM BR=

USA.gov is the U.S. government's official web portal to all federal, state and local government web resources and services.